Time;durP1;ratioP1;P1;durP2;ratioP2;P2;SDS_P1;SDS_P2;PMS_P1;PMS_P2;Temp;Humidity;BMP_temperature;BMP_pressure;BME280_temperature;BME280_humidity;BME280_pressure;Samples;Min_cycle;Max_cycle;Signal;HPM_P1;HPM_P2
2023/07/16 00:01:21;;;;;;;5.63;4.82;;;23.20;54.70;;;;;;5051345;28;20205;-90
2023/07/16 00:03:48;;;;;;;7.90;4.78;;;23.10;56.40;;;;;;5049291;28;20202;-90
2023/07/16 00:06:15;;;;;;;5.28;4.40;;;23.00;58.60;;;;;;5049901;28;20198;-87
2023/07/16 00:08:43;;;;;;;6.25;4.68;;;22.90;58.60;;;;;;5046922;28;20199;-89
2023/07/16 00:11:10;;;;;;;5.95;4.47;;;22.70;61.00;;;;;;5032370;28;20258;-89
2023/07/16 00:13:37;;;;;;;9.02;4.70;;;22.70;64.10;;;;;;5046286;28;20205;-90
2023/07/16 00:16:05;;;;;;;7.25;4.38;;;22.60;66.90;;;;;;5047814;28;20681;-89
2023/07/16 00:18:32;;;;;;;6.35;4.80;;;22.40;69.90;;;;;;5029211;28;20276;-90
2023/07/16 00:20:59;;;;;;;5.93;4.60;;;22.30;72.60;;;;;;5049631;28;20198;-89
2023/07/16 00:23:26;;;;;;;5.75;5.15;;;22.30;74.10;;;;;;5037196;28;20217;-89
2023/07/16 00:25:54;;;;;;;5.35;4.13;;;22.20;75.50;;;;;;5055844;28;20207;-89
2023/07/16 00:28:21;;;;;;;6.70;4.43;;;22.10;76.50;;;;;;5050204;28;20251;-89
2023/07/16 00:30:48;;;;;;;5.95;4.60;;;22.10;77.40;;;;;;5049818;28;20665;-88
2023/07/16 00:33:15;;;;;;;6.93;4.45;;;22.00;77.70;;;;;;5054045;28;20921;-89
2023/07/16 00:38:29;;;;;;;7.00;4.55;;;22.00;78.50;;;;;;5043189;28;20218;-90
2023/07/16 00:40:58;;;;;;;8.15;4.35;;;21.90;80.10;;;;;;5032723;28;20199;-91
2023/07/16 00:43:25;;;;;;;5.82;4.82;;;21.80;81.30;;;;;;5048216;28;20552;-88
2023/07/16 00:45:52;;;;;;;7.35;4.82;;;21.90;81.50;;;;;;5052754;28;20198;-90
2023/07/16 00:48:20;;;;;;;8.15;4.60;;;21.80;81.80;;;;;;5053230;28;20213;-89
2023/07/16 00:50:47;;;;;;;6.88;3.97;;;21.80;82.10;;;;;;5043486;28;20194;-89
2023/07/16 00:53:14;;;;;;;4.93;4.38;;;21.80;82.10;;;;;;5051643;28;20198;-90
2023/07/16 00:55:41;;;;;;;6.10;4.63;;;21.80;82.10;;;;;;5050224;28;20194;-89
2023/07/16 00:58:09;;;;;;;8.07;5.07;;;21.80;82.10;;;;;;5047231;28;20226;-87
2023/07/16 01:00:38;;;;;;;6.60;4.63;;;21.70;82.00;;;;;;5024149;28;20206;-89
2023/07/16 01:03:07;;;;;;;7.03;4.90;;;21.60;83.40;;;;;;5044420;28;20562;-88
2023/07/16 01:05:43;;;;;;;5.53;4.55;;;21.60;84.50;;;;;;5053391;28;20201;-89
2023/07/16 01:08:12;;;;;;;6.18;5.30;;;21.50;85.60;;;;;;5043830;28;20194;-90
2023/07/16 01:10:40;;;;;;;9.90;5.05;;;21.40;86.90;;;;;;5048292;28;20204;-90
2023/07/16 01:13:09;;;;;;;6.22;4.88;;;21.40;87.20;;;;;;5048987;28;20289;-90
2023/07/16 01:15:36;;;;;;;8.50;5.03;;;21.40;88.00;;;;;;5050389;28;20255;-86
2023/07/16 01:18:05;;;;;;;7.45;5.05;;;21.30;88.70;;;;;;5045586;28;20218;-89
2023/07/16 01:20:32;;;;;;;8.27;5.38;;;21.30;89.80;;;;;;5043725;28;20647;-90
2023/07/16 01:23:32;;;;;;;7.65;5.53;;;21.40;89.50;;;;;;5049377;28;20205;-88
2023/07/16 01:26:26;;;;;;;7.60;5.55;;;21.40;90.20;;;;;;5046449;28;20272;-89
2023/07/16 01:29:22;;;;;;;6.80;5.18;;;21.40;90.20;;;;;;5050843;28;20190;-90
2023/07/16 01:31:50;;;;;;;9.68;5.30;;;21.40;89.70;;;;;;5041854;28;20206;-90
2023/07/16 01:34:18;;;;;;;7.32;5.70;;;21.40;90.30;;;;;;5056522;28;20202;-90
2023/07/16 01:36:46;;;;;;;8.73;5.15;;;21.30;90.30;;;;;;5049485;28;20200;-90
2023/07/16 01:39:13;;;;;;;12.10;5.10;;;21.30;90.50;;;;;;5052012;28;20690;-88
2023/07/16 01:41:40;;;;;;;10.30;5.30;;;21.30;90.40;;;;;;5048110;28;20200;-90
2023/07/16 01:44:06;;;;;;;9.68;4.85;;;21.20;90.80;;;;;;5059301;28;20208;-88
2023/07/16 01:46:35;;;;;;;8.27;5.32;;;21.20;90.90;;;;;;5050238;28;20205;-90
2023/07/16 01:49:02;;;;;;;10.73;5.50;;;21.20;91.00;;;;;;5051759;28;20216;-87
2023/07/16 01:51:29;;;;;;;8.40;5.28;;;21.20;91.10;;;;;;5048178;28;20627;-90
2023/07/16 01:53:56;;;;;;;9.02;5.50;;;21.10;91.20;;;;;;5046024;28;20198;-89
2023/07/16 01:56:23;;;;;;;7.30;5.47;;;21.20;91.10;;;;;;5046350;28;20650;-88
2023/07/16 01:58:50;;;;;;;8.45;5.47;;;21.30;91.00;;;;;;5044269;28;20220;-88
2023/07/16 02:01:17;;;;;;;7.93;5.30;;;21.40;90.70;;;;;;5046976;28;20193;-90
2023/07/16 02:03:45;;;;;;;9.50;5.63;;;21.40;90.60;;;;;;5048231;28;20200;-89
2023/07/16 02:06:13;;;;;;;7.68;5.53;;;21.40;90.60;;;;;;5051641;28;20201;-90
2023/07/16 02:08:40;;;;;;;9.57;5.70;;;21.40;90.90;;;;;;5052389;28;20205;-90
2023/07/16 02:11:07;;;;;;;9.48;5.45;;;21.40;91.00;;;;;;5048177;28;20539;-89
2023/07/16 02:13:34;;;;;;;8.38;5.65;;;21.40;90.60;;;;;;5050523;28;20248;-91
2023/07/16 02:16:00;;;;;;;8.02;5.30;;;21.40;91.00;;;;;;5046910;28;20201;-89
2023/07/16 02:18:27;;;;;;;10.13;5.78;;;21.40;91.10;;;;;;5045647;28;20673;-89
2023/07/16 02:21:03;;;;;;;6.38;5.25;;;21.30;91.40;;;;;;5051941;28;20198;-92
2023/07/16 02:23:30;;;;;;;7.43;5.68;;;21.30;91.40;;;;;;5050213;28;20198;-90
2023/07/16 02:25:57;;;;;;;9.73;5.90;;;21.40;91.30;;;;;;5049178;28;20206;-91
2023/07/16 02:28:23;;;;;;;8.30;6.05;;;21.30;91.60;;;;;;5053950;28;20206;-89
2023/07/16 02:30:51;;;;;;;7.88;5.70;;;21.30;91.60;;;;;;5054524;28;20190;-88
2023/07/16 02:33:18;;;;;;;10.10;5.82;;;21.30;91.60;;;;;;5048983;28;20210;-90
2023/07/16 02:35:48;;;;;;;8.13;5.35;;;21.30;91.70;;;;;;5048153;28;20204;-89
2023/07/16 02:38:16;;;;;;;7.25;5.38;;;21.30;91.60;;;;;;5054910;28;20228;-90
2023/07/16 02:40:45;;;;;;;7.53;5.13;;;21.40;91.30;;;;;;5053759;28;20248;-90
2023/07/16 02:43:11;;;;;;;11.35;5.53;;;21.40;91.50;;;;;;5050659;28;20202;-87
2023/07/16 02:45:38;;;;;;;6.72;5.30;;;21.30;91.60;;;;;;5050907;28;20193;-86
2023/07/16 02:48:06;;;;;;;7.90;5.20;;;21.40;91.10;;;;;;5051923;28;20193;-89
2023/07/16 02:50:35;;;;;;;10.13;6.00;;;21.50;90.90;;;;;;5053478;28;20199;-91
2023/07/16 02:53:02;;;;;;;10.98;5.10;;;21.50;90.50;;;;;;5054015;28;20226;-89
2023/07/16 02:55:30;;;;;;;6.43;5.18;;;21.50;90.40;;;;;;5052068;28;20210;-91
2023/07/16 02:57:57;;;;;;;8.00;5.15;;;21.60;90.30;;;;;;5040101;28;20218;-91
2023/07/16 03:00:24;;;;;;;9.00;5.00;;;21.60;90.60;;;;;;5053021;28;20227;-88
2023/07/16 03:02:51;;;;;;;9.90;5.28;;;21.60;90.40;;;;;;5045800;28;20202;-91
2023/07/16 03:05:19;;;;;;;7.20;5.22;;;21.60;90.40;;;;;;5047967;28;20212;-90
2023/07/16 03:07:46;;;;;;;7.10;4.95;;;21.60;90.20;;;;;;5054323;28;20231;-90
2023/07/16 03:10:13;;;;;;;5.07;4.57;;;21.60;89.90;;;;;;5051795;28;20194;-87
2023/07/16 03:12:41;;;;;;;5.43;4.40;;;21.60;90.20;;;;;;5061761;28;20205;-88
2023/07/16 03:15:10;;;;;;;5.75;4.18;;;21.50;89.60;;;;;;5055348;28;20209;-89
2023/07/16 03:17:37;;;;;;;6.65;4.53;;;21.50;89.20;;;;;;5059121;28;20250;-90
2023/07/16 03:20:05;;;;;;;5.78;4.40;;;21.50;90.00;;;;;;5046382;28;20576;-90
2023/07/16 03:22:33;;;;;;;6.97;4.28;;;21.50;89.80;;;;;;5040582;28;20289;-90
2023/07/16 03:25:00;;;;;;;4.18;3.78;;;21.50;90.20;;;;;;5056166;28;20871;-87
2023/07/16 03:27:27;;;;;;;6.72;3.88;;;21.60;87.20;;;;;;5054576;28;20205;-89
2023/07/16 03:32:36;;;;;;;3.40;3.10;;;21.70;85.60;;;;;;5052806;28;20239;-89
2023/07/16 03:35:03;;;;;;;4.70;3.50;;;21.80;83.90;;;;;;5055809;28;20202;-89
2023/07/16 03:37:31;;;;;;;3.65;2.90;;;21.80;83.70;;;;;;5041673;28;20646;-88
2023/07/16 03:40:12;;;;;;;4.43;3.17;;;21.80;83.50;;;;;;5055720;28;20218;-90
2023/07/16 03:42:39;;;;;;;3.70;3.40;;;21.80;83.60;;;;;;5049616;28;20201;-89
2023/07/16 03:45:09;;;;;;;5.15;3.20;;;21.70;84.00;;;;;;5053945;28;20685;-90
2023/07/16 03:47:36;;;;;;;4.38;2.92;;;21.80;84.50;;;;;;5055339;28;20856;-90
2023/07/16 03:50:03;;;;;;;3.22;2.85;;;21.70;84.60;;;;;;5056640;28;20194;-88
2023/07/16 03:52:30;;;;;;;3.63;3.00;;;21.60;84.70;;;;;;5053549;28;20198;-91
2023/07/16 03:54:57;;;;;;;4.80;2.95;;;21.70;85.00;;;;;;5058811;28;20601;-86
2023/07/16 03:57:24;;;;;;;5.30;3.53;;;21.60;85.60;;;;;;5044790;28;20207;-89
2023/07/16 03:59:54;;;;;;;6.85;3.65;;;21.60;85.50;;;;;;5040430;28;20216;-88
2023/07/16 04:02:22;;;;;;;5.05;3.13;;;21.50;85.90;;;;;;5047573;28;20198;-88
2023/07/16 04:04:50;;;;;;;4.38;3.45;;;21.50;87.00;;;;;;5048561;28;20201;-91
2023/07/16 04:07:17;;;;;;;6.05;3.08;;;21.50;86.30;;;;;;5046727;28;20267;-88
2023/07/16 04:09:44;;;;;;;3.53;3.17;;;21.50;86.60;;;;;;5059688;28;20201;-89
2023/07/16 04:12:11;;;;;;;4.95;3.22;;;21.50;87.80;;;;;;5054489;28;20212;-87
2023/07/16 04:14:38;;;;;;;4.57;3.55;;;21.40;88.20;;;;;;5049404;28;20206;-87
2023/07/16 04:17:05;;;;;;;7.93;3.45;;;21.30;89.80;;;;;;5063355;28;20206;-89
2023/07/16 04:19:34;;;;;;;5.25;3.33;;;21.40;89.90;;;;;;5047772;28;20256;-89
2023/07/16 04:22:01;;;;;;;3.90;3.55;;;21.30;89.50;;;;;;5040674;28;20203;-88
2023/07/16 04:24:28;;;;;;;4.25;3.20;;;21.30;90.00;;;;;;5060189;28;20197;-89
2023/07/16 04:26:55;;;;;;;5.72;3.72;;;21.40;90.50;;;;;;5065562;28;20198;-90
2023/07/16 04:29:23;;;;;;;5.55;4.32;;;21.20;92.00;;;;;;5061137;28;20209;-88
2023/07/16 04:31:49;;;;;;;5.65;3.83;;;21.10;94.30;;;;;;5059750;28;20202;-87
2023/07/16 04:34:16;;;;;;;8.73;4.05;;;20.80;95.60;;;;;;5053110;28;20275;-89
2023/07/16 04:36:45;;;;;;;8.70;3.70;;;20.50;96.70;;;;;;5055761;28;20198;-88
2023/07/16 04:39:12;;;;;;;4.07;3.60;;;20.30;98.10;;;;;;5052564;28;20230;-88
2023/07/16 04:41:39;;;;;;;6.95;3.90;;;20.10;98.80;;;;;;5056123;28;20205;-88
2023/07/16 04:44:06;;;;;;;5.18;3.30;;;20.00;99.90;;;;;;5058089;28;20607;-89
2023/07/16 04:46:33;;;;;;;5.90;3.10;;;20.10;99.90;;;;;;5057381;28;20207;-89
2023/07/16 04:49:00;;;;;;;4.63;2.97;;;20.00;99.90;;;;;;5057589;28;20205;-88
2023/07/16 04:51:27;;;;;;;4.75;3.00;;;20.00;99.90;;;;;;5055431;28;20662;-89
2023/07/16 04:53:56;;;;;;;4.60;2.90;;;19.90;99.90;;;;;;5056661;28;20197;-89
2023/07/16 04:56:23;;;;;;;5.90;3.35;;;19.90;99.90;;;;;;5051118;28;20198;-88
2023/07/16 04:58:50;;;;;;;4.57;2.95;;;19.90;99.90;;;;;;5054104;28;20217;-87
2023/07/16 05:01:17;;;;;;;4.60;3.28;;;19.90;99.90;;;;;;5048149;28;20681;-87
2023/07/16 05:03:44;;;;;;;3.25;2.55;;;19.90;99.90;;;;;;5057002;28;20675;-88
2023/07/16 05:06:10;;;;;;;4.47;2.80;;;20.00;99.90;;;;;;5053894;28;20210;-88
2023/07/16 05:08:38;;;;;;;3.28;2.97;;;20.10;99.90;;;;;;5052161;28;20209;-89
2023/07/16 05:11:07;;;;;;;3.53;2.92;;;20.10;99.90;;;;;;5045620;28;20205;-88
2023/07/16 05:13:34;;;;;;;3.42;2.95;;;20.10;99.90;;;;;;5050696;28;20202;-86
2023/07/16 05:16:01;;;;;;;3.33;2.95;;;20.10;99.90;;;;;;5051972;28;20194;-89
2023/07/16 05:18:27;;;;;;;5.03;3.10;;;20.20;99.90;;;;;;5044138;28;20230;-90
2023/07/16 05:20:55;;;;;;;3.60;3.10;;;20.10;99.90;;;;;;5059795;28;20705;-89
2023/07/16 05:23:22;;;;;;;4.00;3.08;;;20.20;99.90;;;;;;5046064;28;20207;-87
2023/07/16 05:25:49;;;;;;;3.10;2.80;;;20.20;99.90;;;;;;5052474;28;20198;-89
2023/07/16 05:28:19;;;;;;;3.00;2.50;;;20.30;99.90;;;;;;5036179;28;20205;-88
2023/07/16 05:30:46;;;;;;;4.43;2.30;;;20.40;99.90;;;;;;5050364;28;20211;-89
2023/07/16 05:33:13;;;;;;;3.22;2.50;;;20.50;99.80;;;;;;5046811;28;20212;-90
2023/07/16 05:35:40;;;;;;;3.55;2.42;;;20.50;99.30;;;;;;5050911;28;20248;-88
2023/07/16 05:38:07;;;;;;;2.33;2.13;;;20.50;99.30;;;;;;5053387;28;20202;-88
2023/07/16 05:40:34;;;;;;;3.38;2.47;;;20.60;99.10;;;;;;5043177;28;20241;-89
2023/07/16 05:43:01;;;;;;;6.00;2.65;;;20.60;98.60;;;;;;5049770;28;20194;-89
2023/07/16 05:45:32;;;;;;;4.43;2.20;;;20.60;98.80;;;;;;5048454;28;20661;-90
2023/07/16 05:47:59;;;;;;;2.20;1.95;;;20.70;99.00;;;;;;5044381;28;20206;-89
2023/07/16 05:50:26;;;;;;;2.35;1.88;;;20.70;98.90;;;;;;5047331;28;20202;-88
2023/07/16 05:52:52;;;;;;;3.67;2.20;;;20.60;98.70;;;;;;5046756;28;20214;-89
2023/07/16 05:55:19;;;;;;;4.90;2.00;;;20.50;99.20;;;;;;5048790;28;20236;-89
2023/07/16 05:57:46;;;;;;;2.10;1.98;;;20.40;99.10;;;;;;5040921;28;20204;-89
2023/07/16 06:00:14;;;;;;;3.60;2.00;;;20.50;99.50;;;;;;5038805;28;20228;-90
2023/07/16 06:02:45;;;;;;;2.50;2.30;;;20.50;99.50;;;;;;5054880;28;20206;-88
2023/07/16 06:05:12;;;;;;;3.85;2.10;;;20.70;99.50;;;;;;5052984;28;20190;-90
2023/07/16 06:07:39;;;;;;;2.17;1.90;;;20.70;99.90;;;;;;5058432;28;20209;-90
2023/07/16 06:10:07;;;;;;;2.88;2.42;;;20.70;99.10;;;;;;5056175;28;20214;-88
2023/07/16 06:12:34;;;;;;;3.45;1.98;;;20.80;99.30;;;;;;5061954;28;20198;-91
2023/07/16 06:15:01;;;;;;;2.25;2.05;;;21.10;98.90;;;;;;5052234;28;20209;-89
2023/07/16 06:17:28;;;;;;;2.08;1.85;;;21.30;98.40;;;;;;5054760;28;20205;-90
2023/07/16 06:19:57;;;;;;;2.35;2.00;;;21.60;97.70;;;;;;5058877;28;20710;-88
2023/07/16 06:22:24;;;;;;;3.40;2.00;;;21.80;96.30;;;;;;5061686;28;20205;-89
2023/07/16 06:24:51;;;;;;;4.32;2.22;;;21.70;96.90;;;;;;5055108;28;20693;-90
2023/07/16 06:27:18;;;;;;;4.38;2.50;;;21.70;97.40;;;;;;5049510;28;20206;-89
2023/07/16 06:29:45;;;;;;;4.35;2.53;;;21.70;97.20;;;;;;5049252;28;20207;-88
2023/07/16 06:32:12;;;;;;;2.75;2.47;;;21.80;97.40;;;;;;5051788;28;20216;-88
2023/07/16 06:34:38;;;;;;;4.63;2.97;;;21.90;97.60;;;;;;5051075;28;20206;-88
2023/07/16 06:37:07;;;;;;;4.40;2.78;;;22.00;97.10;;;;;;5049860;28;20726;-91
2023/07/16 06:39:34;;;;;;;3.83;2.50;;;22.00;96.70;;;;;;5049923;28;20785;-89
2023/07/16 06:42:01;;;;;;;7.53;3.10;;;21.90;97.30;;;;;;5049413;28;20210;-88
2023/07/16 06:44:28;;;;;;;3.75;2.78;;;21.70;98.10;;;;;;5055529;28;20208;-88
2023/07/16 06:46:56;;;;;;;3.72;2.75;;;21.50;98.40;;;;;;5042308;28;20203;-89
2023/07/16 06:49:23;;;;;;;3.47;2.70;;;21.30;98.70;;;;;;5053797;28;20653;-88
2023/07/16 06:51:50;;;;;;;4.30;2.97;;;21.40;99.00;;;;;;5053836;28;20190;-90
2023/07/16 06:54:18;;;;;;;3.90;2.83;;;21.50;99.00;;;;;;5048651;28;20233;-87
2023/07/16 06:56:45;;;;;;;3.25;2.80;;;21.60;99.20;;;;;;5045522;28;20222;-89
2023/07/16 06:59:12;;;;;;;3.00;2.30;;;21.80;98.90;;;;;;5049448;28;20216;-90
2023/07/16 07:01:39;;;;;;;2.90;2.60;;;21.90;99.00;;;;;;5046706;28;20198;-90
2023/07/16 07:04:06;;;;;;;3.38;2.60;;;22.10;98.10;;;;;;5050066;28;20397;-88
2023/07/16 07:06:33;;;;;;;3.95;2.95;;;22.10;97.50;;;;;;5050711;28;20690;-88
2023/07/16 07:09:00;;;;;;;2.97;2.67;;;22.10;97.40;;;;;;5051456;28;20194;-90
2023/07/16 07:11:28;;;;;;;4.78;2.65;;;22.10;96.90;;;;;;5048940;28;20204;-89
2023/07/16 07:13:57;;;;;;;3.25;2.53;;;22.20;96.80;;;;;;5055179;28;20206;-87
2023/07/16 07:16:24;;;;;;;2.60;2.40;;;22.20;96.30;;;;;;5047947;28;20201;-91
2023/07/16 07:18:50;;;;;;;3.28;2.47;;;22.30;95.90;;;;;;5050000;28;20705;-89
2023/07/16 07:21:18;;;;;;;2.55;2.20;;;22.20;95.30;;;;;;5048349;28;20245;-90
2023/07/16 07:23:44;;;;;;;2.10;1.90;;;22.20;93.70;;;;;;5042338;28;20563;-88
2023/07/16 07:26:11;;;;;;;2.22;1.63;;;22.20;93.10;;;;;;5062130;28;20546;-89
2023/07/16 07:28:40;;;;;;;2.83;2.10;;;22.40;91.70;;;;;;5046225;28;20198;-86
2023/07/16 07:31:06;;;;;;;3.10;2.10;;;22.40;91.40;;;;;;5049311;28;20202;-84
2023/07/16 07:33:33;;;;;;;2.97;1.88;;;22.40;92.00;;;;;;5046928;28;20661;-87
2023/07/16 07:36:00;;;;;;;2.03;1.92;;;22.40;92.50;;;;;;5049063;28;20206;-85
2023/07/16 07:38:28;;;;;;;2.28;1.95;;;22.40;93.00;;;;;;5041202;28;20237;-88
2023/07/16 07:40:55;;;;;;;1.90;1.80;;;22.40;93.20;;;;;;5045438;28;20705;-84
2023/07/16 07:43:22;;;;;;;2.38;1.85;;;22.40;91.80;;;;;;5045666;28;20221;-84
2023/07/16 07:45:50;;;;;;;3.08;1.77;;;22.20;90.90;;;;;;5039423;28;20639;-86
2023/07/16 07:48:17;;;;;;;1.88;1.70;;;22.20;90.60;;;;;;5046823;28;20201;-85
2023/07/16 07:50:44;;;;;;;1.95;1.85;;;22.00;91.00;;;;;;5054285;28;20279;-86
2023/07/16 07:53:11;;;;;;;2.22;1.75;;;21.90;90.80;;;;;;5044510;28;20198;-84
2023/07/16 07:55:38;;;;;;;4.05;2.00;;;21.90;91.60;;;;;;5044661;28;20198;-83
2023/07/16 07:58:05;;;;;;;2.58;2.08;;;21.90;90.50;;;;;;5044786;28;20198;-86
2023/07/16 08:00:32;;;;;;;2.60;2.30;;;21.80;91.50;;;;;;5037364;28;20718;-88
2023/07/16 08:03:00;;;;;;;2.65;2.13;;;21.80;92.20;;;;;;5039161;28;20195;-86
2023/07/16 08:05:27;;;;;;;2.35;1.90;;;21.90;92.80;;;;;;5041650;28;20252;-84
2023/07/16 08:07:55;;;;;;;2.17;1.98;;;21.90;92.80;;;;;;5043395;28;20211;-86
2023/07/16 08:10:22;;;;;;;2.65;2.08;;;22.00;92.80;;;;;;5045209;28;20209;-85
2023/07/16 08:12:49;;;;;;;2.10;1.90;;;22.30;91.30;;;;;;5043667;28;20202;-85
2023/07/16 08:15:16;;;;;;;2.30;2.10;;;22.50;90.10;;;;;;5043898;28;20202;-86
2023/07/16 08:17:44;;;;;;;4.00;2.03;;;22.50;91.30;;;;;;5045046;28;20251;-88
2023/07/16 08:20:13;;;;;;;2.20;2.00;;;22.50;91.60;;;;;;5044717;28;20241;-85
2023/07/16 08:22:40;;;;;;;2.00;1.80;;;22.60;90.50;;;;;;5046204;28;20210;-85
2023/07/16 08:25:08;;;;;;;2.30;2.10;;;22.90;90.00;;;;;;5046834;28;20204;-87
2023/07/16 08:27:35;;;;;;;2.40;2.20;;;23.00;86.50;;;;;;5044277;28;20217;-87
2023/07/16 08:30:02;;;;;;;11.18;9.52;;;23.00;80.50;;;;;;5038165;28;20198;-85
2023/07/16 08:32:29;;;;;;;2.42;2.20;;;23.20;79.10;;;;;;5047372;28;20202;-85
2023/07/16 08:34:56;;;;;;;2.17;1.90;;;23.50;83.30;;;;;;5041754;28;20199;-88
2023/07/16 08:37:25;;;;;;;2.00;1.90;;;24.00;70.30;;;;;;5046435;28;20204;-86
2023/07/16 08:39:53;;;;;;;2.20;2.00;;;24.60;57.90;;;;;;5047011;28;20225;-85
2023/07/16 08:42:20;;;;;;;3.05;1.88;;;25.20;54.40;;;;;;5051252;28;20269;-84
2023/07/16 08:44:50;;;;;;;193.60;173.65;;;25.20;49.10;;;;;;5039595;28;20206;-83
2023/07/16 08:47:17;;;;;;;5.15;4.75;;;25.40;50.80;;;;;;5048655;28;20206;-82
2023/07/16 08:49:55;;;;;;;3.25;2.70;;;26.10;46.60;;;;;;5042807;28;20205;-83
2023/07/16 08:52:24;;;;;;;2.30;2.10;;;26.60;38.00;;;;;;5045202;28;20326;-83
2023/07/16 08:54:50;;;;;;;3.88;3.55;;;26.60;35.00;;;;;;5046212;28;20209;-83
2023/07/16 08:57:18;;;;;;;3.63;2.40;;;26.60;38.90;;;;;;5047249;28;20221;-83
2023/07/16 08:59:48;;;;;;;3.00;2.65;;;26.70;37.30;;;;;;5046123;28;20915;-84
2023/07/16 09:02:16;;;;;;;8.30;7.45;;;27.10;36.40;;;;;;5047182;28;20198;-85
2023/07/16 09:04:43;;;;;;;42.95;38.97;;;27.50;31.40;;;;;;5045490;28;20573;-85
2023/07/16 09:07:10;;;;;;;5.68;5.18;;;27.40;30.10;;;;;;5045243;28;20205;-83
2023/07/16 09:09:38;;;;;;;2.75;2.55;;;27.10;32.20;;;;;;5045072;28;20293;-82
2023/07/16 09:12:06;;;;;;;1.90;1.77;;;27.30;28.50;;;;;;5043794;28;20204;-85
2023/07/16 09:14:33;;;;;;;2.63;2.17;;;27.10;21.70;;;;;;5041494;28;20919;-86
2023/07/16 09:17:00;;;;;;;1.77;1.67;;;26.90;24.80;;;;;;5045892;28;20763;-87
2023/07/16 09:19:27;;;;;;;1.67;1.58;;;27.10;27.80;;;;;;5038912;28;20633;-84
2023/07/16 09:21:54;;;;;;;2.10;2.00;;;27.20;29.00;;;;;;5041365;28;20649;-84
2023/07/16 09:24:21;;;;;;;1.90;1.80;;;27.80;25.60;;;;;;5042358;28;20200;-86
2023/07/16 09:26:53;;;;;;;2.05;1.65;;;28.30;27.50;;;;;;5041349;28;20233;-86
2023/07/16 09:29:21;;;;;;;2.00;1.90;;;28.10;20.60;;;;;;5049835;28;20208;-87
2023/07/16 09:31:55;;;;;;;2.10;2.00;;;28.10;23.60;;;;;;5043461;28;20202;-87
2023/07/16 09:34:22;;;;;;;2.33;1.67;;;28.00;22.50;;;;;;5040586;28;20201;-88
2023/07/16 09:36:50;;;;;;;8.38;6.13;;;28.10;22.90;;;;;;5046279;28;20594;-87
2023/07/16 09:39:18;;;;;;;2.47;2.28;;;28.40;23.00;;;;;;5040181;28;20206;-86
2023/07/16 09:41:45;;;;;;;4.13;2.20;;;28.60;19.90;;;;;;5044945;28;20232;-88
2023/07/16 09:44:15;;;;;;;3.42;3.13;;;28.20;22.20;;;;;;5038265;28;20657;-87
2023/07/16 09:46:43;;;;;;;2.67;2.20;;;28.30;23.30;;;;;;5038799;28;20241;-86
2023/07/16 09:49:10;;;;;;;1.90;1.80;;;29.20;20.20;;;;;;5042698;28;20753;-88
2023/07/16 09:51:39;;;;;;;2.10;1.88;;;29.60;17.80;;;;;;5045223;28;20202;-87
2023/07/16 09:54:06;;;;;;;2.58;2.10;;;29.70;16.50;;;;;;5045459;28;20622;-87
2023/07/16 09:56:37;;;;;;;2.05;1.85;;;29.90;18.90;;;;;;5047410;28;20208;-87
2023/07/16 09:59:08;;;;;;;2.63;2.47;;;29.90;19.30;;;;;;5044043;28;20193;-87
2023/07/16 10:01:38;;;;;;;2.40;2.20;;;30.30;16.80;;;;;;5044826;28;20217;-87
2023/07/16 10:04:12;;;;;;;3.35;3.05;;;31.20;15.00;;;;;;5036056;28;20189;-88
2023/07/16 10:06:50;;;;;;;2.72;2.10;;;31.60;12.50;;;;;;5043923;28;20202;-88
2023/07/16 10:09:32;;;;;;;2.80;2.60;;;31.20;14.90;;;;;;5045485;28;20307;-88
2023/07/16 10:12:15;;;;;;;2.30;2.10;;;31.50;13.00;;;;;;5044954;28;20241;-89
2023/07/16 10:14:43;;;;;;;3.47;3.25;;;31.00;14.70;;;;;;5040159;28;20535;-88
2023/07/16 10:17:16;;;;;;;11.57;10.70;;;30.90;17.10;;;;;;5027672;28;20205;-86
2023/07/16 10:19:56;;;;;;;2.65;2.45;;;31.60;14.30;;;;;;5035719;28;20201;-87
2023/07/16 10:22:33;;;;;;;2.20;2.00;;;31.70;13.40;;;;;;5042830;28;20591;-84
2023/07/16 10:25:00;;;;;;;2.38;2.17;;;31.20;13.20;;;;;;5043953;28;20200;-87
2023/07/16 10:27:31;;;;;;;2.13;2.03;;;31.40;14.50;;;;;;5044554;28;20220;-84
2023/07/16 10:30:01;;;;;;;2.70;2.50;;;31.30;15.50;;;;;;5041346;28;20929;-86
2023/07/16 10:32:29;;;;;;;2.33;2.17;;;31.50;13.80;;;;;;5040464;28;20216;-86
2023/07/16 10:34:57;;;;;;;2.35;2.25;;;32.50;13.70;;;;;;5040456;28;20194;-87
2023/07/16 10:37:24;;;;;;;7.30;6.68;;;32.70;12.30;;;;;;5042736;28;20208;-85
2023/07/16 10:39:53;;;;;;;12.30;11.15;;;32.30;13.50;;;;;;5040506;28;20201;-85
2023/07/16 10:42:20;;;;;;;3.88;3.58;;;33.00;9.90;;;;;;5046077;28;20241;-85
2023/07/16 10:44:50;;;;;;;3.97;3.08;;;32.90;10.70;;;;;;5043544;28;20190;-85
2023/07/16 10:47:22;;;;;;;2.97;2.78;;;33.00;10.80;;;;;;5042749;28;20255;-86
2023/07/16 10:49:51;;;;;;;3.17;2.17;;;32.70;12.40;;;;;;5049383;28;20623;-86
2023/07/16 10:52:19;;;;;;;2.85;2.65;;;32.30;12.10;;;;;;5040757;28;20756;-86
2023/07/16 10:54:45;;;;;;;2.45;2.28;;;32.40;10.80;;;;;;5045741;28;20204;-86
2023/07/16 10:57:13;;;;;;;2.47;2.38;;;32.60;10.80;;;;;;5046649;28;20198;-87
2023/07/16 10:59:41;;;;;;;2.33;2.13;;;32.10;12.50;;;;;;5047058;28;20203;-87
2023/07/16 11:02:12;;;;;;;3.00;2.80;;;32.00;13.00;;;;;;5045250;28;20240;-84
2023/07/16 11:04:39;;;;;;;2.30;2.17;;;32.30;11.80;;;;;;5043192;28;20599;-84
2023/07/16 11:07:09;;;;;;;3.42;3.13;;;32.40;12.30;;;;;;5043734;28;20542;-82
2023/07/16 11:09:41;;;;;;;2.53;2.33;;;31.70;14.90;;;;;;5038654;28;20190;-82
2023/07/16 11:12:09;;;;;;;2.20;2.00;;;31.80;11.10;;;;;;5047885;28;20205;-83
2023/07/16 11:14:36;;;;;;;2.20;2.00;;;31.60;12.20;;;;;;5044245;28;20200;-87
2023/07/16 11:17:08;;;;;;;2.33;2.13;;;31.10;13.70;;;;;;5048160;28;20211;-84
2023/07/16 11:19:35;;;;;;;2.42;2.22;;;30.60;14.20;;;;;;5043806;28;20229;-83
2023/07/16 11:22:02;;;;;;;2.67;2.47;;;30.80;16.10;;;;;;5039334;28;20297;-82
2023/07/16 11:24:37;;;;;;;2.10;1.90;;;30.70;14.90;;;;;;5043668;28;20204;-83
2023/07/16 11:27:05;;;;;;;2.40;2.20;;;30.00;16.60;;;;;;5045597;28;20198;-86
2023/07/16 11:29:35;;;;;;;2.00;1.90;;;29.60;16.40;;;;;;5043717;28;20209;-80
2023/07/16 11:32:02;;;;;;;2.75;2.55;;;29.50;18.30;;;;;;5043327;28;20206;-85
2023/07/16 11:34:29;;;;;;;2.50;2.30;;;29.50;17.30;;;;;;5038959;28;20220;-83
2023/07/16 11:36:56;;;;;;;2.20;1.98;;;29.60;18.10;;;;;;5046916;28;20205;-84
2023/07/16 11:39:29;;;;;;;2.38;2.17;;;29.60;16.40;;;;;;5039624;28;20201;-83
2023/07/16 11:41:58;;;;;;;2.13;1.90;;;29.90;16.60;;;;;;5046207;28;20217;-83
2023/07/16 11:44:25;;;;;;;2.42;2.22;;;29.60;16.40;;;;;;5039563;28;20258;-82
2023/07/16 11:46:52;;;;;;;2.35;2.20;;;29.10;17.10;;;;;;5037768;28;20198;-85
2023/07/16 11:49:18;;;;;;;2.25;2.03;;;28.80;17.20;;;;;;5043144;28;20197;-81
2023/07/16 11:51:45;;;;;;;2.40;2.20;;;28.80;17.70;;;;;;5043207;28;20205;-83
2023/07/16 11:54:12;;;;;;;3.85;1.92;;;29.00;17.80;;;;;;5040791;28;21092;-82
2023/07/16 11:56:39;;;;;;;3.58;2.40;;;29.20;16.20;;;;;;5039281;28;20679;-83
2023/07/16 11:59:07;;;;;;;2.33;2.10;;;29.30;16.30;;;;;;5039348;28;20240;-81
2023/07/16 12:01:34;;;;;;;2.20;2.00;;;29.40;17.20;;;;;;5040692;28;20232;-82
2023/07/16 12:04:01;;;;;;;3.03;2.38;;;29.40;16.50;;;;;;5039887;28;20279;-83
2023/07/16 12:06:28;;;;;;;2.10;1.90;;;29.20;16.20;;;;;;5040641;28;20199;-82
2023/07/16 12:08:55;;;;;;;2.40;2.00;;;29.10;16.20;;;;;;5047497;28;20198;-81
2023/07/16 12:11:22;;;;;;;2.58;2.38;;;28.60;17.50;;;;;;5042986;28;20230;-81
2023/07/16 12:13:49;;;;;;;2.97;2.30;;;28.20;18.50;;;;;;5047281;28;20206;-85
2023/07/16 12:16:17;;;;;;;2.47;2.28;;;28.00;19.30;;;;;;5041963;28;20190;-85
2023/07/16 12:18:44;;;;;;;2.80;2.47;;;27.80;21.60;;;;;;5042996;28;20213;-82
2023/07/16 12:21:11;;;;;;;2.50;2.30;;;27.60;20.40;;;;;;5046426;28;20228;-82
2023/07/16 12:23:38;;;;;;;2.80;2.60;;;27.30;20.30;;;;;;5044823;28;20576;-82
2023/07/16 12:26:05;;;;;;;2.45;2.25;;;27.30;21.90;;;;;;5038557;28;20205;-80
2023/07/16 12:28:32;;;;;;;2.67;2.42;;;27.60;20.00;;;;;;5045330;28;20554;-82
2023/07/16 12:30:59;;;;;;;2.70;2.50;;;27.70;19.20;;;;;;5042070;28;20201;-81
2023/07/16 12:33:27;;;;;;;4.05;2.80;;;28.10;19.70;;;;;;5035132;28;21236;-82
2023/07/16 12:35:54;;;;;;;2.90;2.60;;;28.30;18.40;;;;;;5034590;28;20194;-81
2023/07/16 12:38:22;;;;;;;2.90;2.65;;;28.60;19.70;;;;;;5036240;28;20209;-81
2023/07/16 12:40:49;;;;;;;2.90;2.65;;;28.90;19.10;;;;;;5038944;28;20205;-82
2023/07/16 12:43:16;;;;;;;3.38;2.45;;;29.20;19.30;;;;;;5037227;28;20198;-80
2023/07/16 12:45:43;;;;;;;2.55;2.35;;;29.20;18.30;;;;;;5039334;28;20193;-78
2023/07/16 12:48:09;;;;;;;4.00;2.38;;;28.90;17.80;;;;;;5040625;28;20197;-79
2023/07/16 12:50:38;;;;;;;2.63;2.42;;;28.50;18.70;;;;;;5038685;28;20681;-80
2023/07/16 12:53:04;;;;;;;2.50;2.30;;;28.40;18.40;;;;;;5039441;28;20207;-80
2023/07/16 12:55:33;;;;;;;2.60;2.40;;;28.00;19.50;;;;;;5042580;28;20205;-82